Time;durP1;ratioP1;P1;durP2;ratioP2;P2;SDS_P1;SDS_P2;PMS_P1;PMS_P2;Temp;Humidity;BMP_temperature;BMP_pressure;BME280_temperature;BME280_humidity;BME280_pressure;Samples;Min_cycle;Max_cycle;Signal;HPM_P1;HPM_P2
2023/05/16 00:01:11;;;;;;;3.20;1.95;;;;;;;;;;5093266;28;20415;-64
2023/05/16 00:03:38;;;;;;;2.58;1.80;;;;;;;;;;5092842;28;20024;-64
2023/05/16 00:06:05;;;;;;;1.48;1.17;;;;;;;;;;5090704;28;20035;-64
2023/05/16 00:08:31;;;;;;;2.80;1.67;;;;;;;;;;5088373;28;20021;-64
2023/05/16 00:10:58;;;;;;;2.65;2.00;;;;;;;;;;5088208;28;20074;-64
2023/05/16 00:13:25;;;;;;;1.60;1.02;;;;;;;;;;5088227;28;20027;-64
2023/05/16 00:15:53;;;;;;;2.97;2.05;;;;;;;;;;5089810;28;20475;-64
2023/05/16 00:18:22;;;;;;;1.90;1.48;;;;;;;;;;5093269;28;20032;-65
2023/05/16 00:20:51;;;;;;;2.92;1.67;;;;;;;;;;5092988;28;20842;-64
2023/05/16 00:23:18;;;;;;;2.30;1.63;;;;;;;;;;5093111;28;20158;-64
2023/05/16 00:25:46;;;;;;;2.33;1.50;;;;;;;;;;5093005;28;20103;-64
2023/05/16 00:28:12;;;;;;;4.53;2.13;;;;;;;;;;5090636;28;20028;-64
2023/05/16 00:30:39;;;;;;;2.95;1.67;;;;;;;;;;5087626;28;20025;-64
2023/05/16 00:33:06;;;;;;;5.65;1.92;;;;;;;;;;5087850;28;20024;-64
2023/05/16 00:35:33;;;;;;;2.15;1.45;;;;;;;;;;5087749;28;20036;-64
2023/05/16 00:38:00;;;;;;;3.53;2.33;;;;;;;;;;5089096;28;20031;-64
2023/05/16 00:40:26;;;;;;;1.88;1.42;;;;;;;;;;5092579;28;20153;-64
2023/05/16 00:42:53;;;;;;;2.92;1.95;;;;;;;;;;5092810;28;20024;-64
2023/05/16 00:45:20;;;;;;;2.72;1.52;;;;;;;;;;5092533;28;20044;-64
2023/05/16 00:47:47;;;;;;;4.33;1.60;;;;;;;;;;5092759;28;20383;-64
2023/05/16 00:50:14;;;;;;;2.63;1.90;;;;;;;;;;5090845;28;20020;-66
2023/05/16 00:52:40;;;;;;;4.93;2.30;;;;;;;;;;5087625;28;20103;-65
2023/05/16 00:55:09;;;;;;;6.67;2.47;;;;;;;;;;5087388;28;20097;-64
2023/05/16 00:57:37;;;;;;;2.53;1.70;;;;;;;;;;5087453;28;20048;-65
2023/05/16 01:00:11;;;;;;;3.37;1.43;;;;;;;;;;5088418;28;20490;-64
2023/05/16 01:02:38;;;;;;;2.97;1.83;;;;;;;;;;5092407;28;20360;-64
2023/05/16 01:05:06;;;;;;;2.33;1.55;;;;;;;;;;5092077;28;20024;-64
2023/05/16 01:07:32;;;;;;;7.00;2.03;;;;;;;;;;5092593;28;20069;-64
2023/05/16 01:10:00;;;;;;;4.03;2.00;;;;;;;;;;5092405;28;20035;-65
2023/05/16 01:12:31;;;;;;;4.63;2.60;;;;;;;;;;5091061;28;20023;-65
2023/05/16 01:15:07;;;;;;;7.63;3.20;;;;;;;;;;5091559;28;20024;-64
2023/05/16 01:17:46;;;;;;;4.57;2.50;;;;;;;;;;5091644;28;20028;-64
2023/05/16 01:20:16;;;;;;;5.23;2.57;;;;;;;;;;5091610;28;20479;-64
2023/05/16 01:22:50;;;;;;;1.97;1.53;;;;;;;;;;5092994;28;20034;-64
2023/05/16 01:25:52;;;;;;;2.13;1.55;;;;;;;;;;5096627;28;20024;-64
2023/05/16 01:28:19;;;;;;;4.40;2.47;;;;;;;;;;5096168;28;20024;-64
2023/05/16 01:30:46;;;;;;;7.63;2.60;;;;;;;;;;5096618;28;20103;-65
2023/05/16 01:33:12;;;;;;;2.77;2.17;;;;;;;;;;5096464;28;20454;-64
2023/05/16 01:35:55;;;;;;;3.10;2.00;;;;;;;;;;5093423;28;20103;-64
2023/05/16 01:38:26;;;;;;;4.10;2.97;;;;;;;;;;5091142;28;20024;-64
2023/05/16 01:40:55;;;;;;;4.30;2.23;;;;;;;;;;5091049;28;20093;-64
2023/05/16 01:43:34;;;;;;;4.00;2.67;;;;;;;;;;5091279;28;20352;-64
2023/05/16 01:46:05;;;;;;;13.73;2.30;;;;;;;;;;5094414;28;20036;-64
2023/05/16 01:48:34;;;;;;;4.63;2.60;;;;;;;;;;5096068;28;20024;-64
2023/05/16 01:51:02;;;;;;;3.93;2.43;;;;;;;;;;5095902;28;20024;-64
2023/05/16 01:53:31;;;;;;;5.53;2.77;;;;;;;;;;5096091;28;20020;-64
2023/05/16 01:56:00;;;;;;;3.10;2.33;;;;;;;;;;5096074;28;20043;-64
2023/05/16 01:58:28;;;;;;;3.17;2.40;;;;;;;;;;5092053;28;20020;-65
2023/05/16 02:00:59;;;;;;;2.57;2.10;;;;;;;;;;5089832;28;20418;-64
2023/05/16 02:03:27;;;;;;;4.63;2.60;;;;;;;;;;5090828;28;20368;-64
2023/05/16 02:05:53;;;;;;;2.97;1.80;;;;;;;;;;5090353;28;20447;-65
2023/05/16 02:08:20;;;;;;;5.43;2.70;;;;;;;;;;5093876;28;20483;-64
2023/05/16 02:10:47;;;;;;;3.97;2.80;;;;;;;;;;5095712;28;20422;-64
2023/05/16 02:13:14;;;;;;;5.83;3.17;;;;;;;;;;5095653;28;20509;-64
2023/05/16 02:15:41;;;;;;;7.33;3.17;;;;;;;;;;5095786;28;20024;-64
2023/05/16 02:18:08;;;;;;;3.27;2.43;;;;;;;;;;5095533;28;20043;-64
2023/05/16 02:20:35;;;;;;;3.30;2.10;;;;;;;;;;5091913;28;20020;-64
2023/05/16 02:23:04;;;;;;;4.50;2.53;;;;;;;;;;5090126;28;20031;-64
2023/05/16 02:25:31;;;;;;;4.67;2.10;;;;;;;;;;5089738;28;20051;-64
2023/05/16 02:27:58;;;;;;;3.40;2.40;;;;;;;;;;5090351;28;20126;-64
2023/05/16 02:30:25;;;;;;;3.20;2.40;;;;;;;;;;5093047;28;20340;-64
2023/05/16 02:32:52;;;;;;;7.13;2.30;;;;;;;;;;5095269;28;20024;-65
2023/05/16 02:35:19;;;;;;;4.63;3.10;;;;;;;;;;5095212;28;20047;-64
2023/05/16 02:37:46;;;;;;;7.87;3.30;;;;;;;;;;5095073;28;20028;-64
2023/05/16 02:40:14;;;;;;;2.10;1.77;;;;;;;;;;5094658;28;20428;-64
2023/05/16 02:42:44;;;;;;;2.93;2.13;;;;;;;;;;5092364;28;20040;-64
2023/05/16 02:45:11;;;;;;;3.27;2.43;;;;;;;;;;5090022;28;20582;-64
2023/05/16 02:47:38;;;;;;;4.17;2.63;;;;;;;;;;5090032;28;20104;-64
2023/05/16 02:50:05;;;;;;;2.80;2.10;;;;;;;;;;5089960;28;20031;-64
2023/05/16 02:52:31;;;;;;;3.07;1.97;;;;;;;;;;5091842;28;20020;-66
2023/05/16 02:54:58;;;;;;;3.87;2.60;;;;;;;;;;5094800;28;20051;-64
2023/05/16 02:57:25;;;;;;;3.40;2.43;;;;;;;;;;5094370;28;20031;-64
2023/05/16 02:59:52;;;;;;;7.60;3.00;;;;;;;;;;5094838;28;20059;-64
2023/05/16 03:02:18;;;;;;;3.00;2.17;;;;;;;;;;5094575;28;20506;-64
2023/05/16 03:04:45;;;;;;;6.70;2.37;;;;;;;;;;5092436;28;20024;-64
2023/05/16 03:07:12;;;;;;;7.50;3.00;;;;;;;;;;5089595;28;20024;-64
2023/05/16 03:09:39;;;;;;;4.87;3.10;;;;;;;;;;5089626;28;20024;-63
2023/05/16 03:12:05;;;;;;;2.67;2.13;;;;;;;;;;5089436;28;20375;-64
2023/05/16 03:14:32;;;;;;;6.57;3.00;;;;;;;;;;5090792;28;20067;-64
2023/05/16 03:16:59;;;;;;;3.90;2.67;;;;;;;;;;5094287;28;20077;-63
2023/05/16 03:19:26;;;;;;;4.17;2.70;;;;;;;;;;5094414;28;20031;-64
2023/05/16 03:21:53;;;;;;;3.43;2.40;;;;;;;;;;5094379;28;20028;-63
2023/05/16 03:24:21;;;;;;;6.97;2.33;;;;;;;;;;5094239;28;20024;-64
2023/05/16 03:26:48;;;;;;;3.03;2.23;;;;;;;;;;5092500;28;20016;-65
2023/05/16 03:29:15;;;;;;;3.37;2.33;;;;;;;;;;5088840;28;20016;-64
2023/05/16 03:31:42;;;;;;;2.77;2.30;;;;;;;;;;5089118;28;20421;-64
2023/05/16 03:34:09;;;;;;;2.33;1.83;;;;;;;;;;5088713;28;20061;-63
2023/05/16 03:36:35;;;;;;;3.40;2.20;;;;;;;;;;5088784;28;20502;-64
2023/05/16 03:39:02;;;;;;;4.47;2.57;;;;;;;;;;5093998;28;20391;-64
2023/05/16 03:41:29;;;;;;;4.17;2.23;;;;;;;;;;5093877;28;20383;-63
2023/05/16 03:43:56;;;;;;;2.90;2.23;;;;;;;;;;5094035;28;20016;-64
2023/05/16 03:46:22;;;;;;;2.83;2.03;;;;;;;;;;5093661;28;20629;-63
2023/05/16 03:48:49;;;;;;;2.50;2.00;;;;;;;;;;5093019;28;20035;-63
2023/05/16 03:51:16;;;;;;;3.20;2.40;;;;;;;;;;5088316;28;20082;-64
2023/05/16 03:53:43;;;;;;;2.97;2.40;;;;;;;;;;5088621;28;20034;-65
2023/05/16 03:56:10;;;;;;;3.73;2.57;;;;;;;;;;5088649;28;20028;-63
2023/05/16 03:58:36;;;;;;;15.73;2.63;;;;;;;;;;5088585;28;20044;-63
2023/05/16 04:01:03;;;;;;;4.23;2.80;;;;;;;;;;5093593;28;20028;-63
2023/05/16 04:03:32;;;;;;;4.73;2.87;;;;;;;;;;5093320;28;20039;-63
2023/05/16 04:05:59;;;;;;;3.00;2.20;;;;;;;;;;5093441;28;20032;-64
2023/05/16 04:08:26;;;;;;;3.67;2.63;;;;;;;;;;5092943;28;20019;-63
2023/05/16 04:10:53;;;;;;;2.80;2.30;;;;;;;;;;5093346;28;20359;-63
2023/05/16 04:13:20;;;;;;;2.20;1.93;;;;;;;;;;5088255;28;20020;-64
2023/05/16 04:15:49;;;;;;;3.73;1.83;;;;;;;;;;5088324;28;20045;-64
2023/05/16 04:18:16;;;;;;;2.20;1.83;;;;;;;;;;5088390;28;20150;-63
2023/05/16 04:20:43;;;;;;;3.23;2.37;;;;;;;;;;5087940;28;20054;-63
2023/05/16 04:23:11;;;;;;;3.20;2.77;;;;;;;;;;5092843;28;20016;-63
2023/05/16 04:25:38;;;;;;;3.03;2.30;;;;;;;;;;5092585;28;20024;-63
2023/05/16 04:28:05;;;;;;;5.17;2.70;;;;;;;;;;5093069;28;20053;-64
2023/05/16 04:30:32;;;;;;;7.50;2.43;;;;;;;;;;5092886;28;20039;-63
2023/05/16 04:32:58;;;;;;;3.10;2.47;;;;;;;;;;5092882;28;20103;-63
2023/05/16 04:35:27;;;;;;;5.53;2.70;;;;;;;;;;5088078;28;20030;-63
2023/05/16 04:37:53;;;;;;;3.23;2.47;;;;;;;;;;5087847;28;20103;-63
2023/05/16 04:40:20;;;;;;;6.50;3.20;;;;;;;;;;5087871;28;20486;-63
2023/05/16 04:42:47;;;;;;;4.63;3.07;;;;;;;;;;5087668;28;20028;-63
2023/05/16 04:45:14;;;;;;;5.43;3.30;;;;;;;;;;5091870;28;20483;-65
2023/05/16 04:47:41;;;;;;;4.03;2.20;;;;;;;;;;5092567;28;20020;-63
2023/05/16 04:50:08;;;;;;;4.17;2.27;;;;;;;;;;5092737;28;20111;-63
2023/05/16 04:52:35;;;;;;;3.00;2.40;;;;;;;;;;5092724;28;20028;-64
2023/05/16 04:55:02;;;;;;;2.90;2.50;;;;;;;;;;5092511;28;20107;-63
2023/05/16 04:57:29;;;;;;;6.10;2.90;;;;;;;;;;5088268;28;20026;-63
2023/05/16 04:59:56;;;;;;;3.57;2.53;;;;;;;;;;5086794;28;20030;-63
2023/05/16 05:02:22;;;;;;;3.00;1.80;;;;;;;;;;5087615;28;20509;-63
2023/05/16 05:04:50;;;;;;;3.40;2.50;;;;;;;;;;5087863;28;20437;-63
2023/05/16 05:07:16;;;;;;;3.97;2.73;;;;;;;;;;5090838;28;20020;-63
2023/05/16 05:09:43;;;;;;;2.83;2.30;;;;;;;;;;5092556;28;20024;-63
2023/05/16 05:12:11;;;;;;;10.33;3.00;;;;;;;;;;5092332;28;20039;-63
2023/05/16 05:14:37;;;;;;;10.00;3.53;;;;;;;;;;5092541;28;20028;-63
2023/05/16 05:17:04;;;;;;;4.67;2.80;;;;;;;;;;5092015;28;20024;-63
2023/05/16 05:19:31;;;;;;;4.63;2.97;;;;;;;;;;5088836;28;20029;-64
2023/05/16 05:21:58;;;;;;;11.87;3.13;;;;;;;;;;5087316;28;20171;-64
2023/05/16 05:24:25;;;;;;;3.10;2.40;;;;;;;;;;5087370;28;20028;-63
2023/05/16 05:26:52;;;;;;;5.57;2.67;;;;;;;;;;5087388;28;20032;-63
2023/05/16 05:29:19;;;;;;;4.03;3.03;;;;;;;;;;5089947;28;20107;-64
2023/05/16 05:31:46;;;;;;;6.03;2.30;;;;;;;;;;5092321;28;20024;-63
2023/05/16 05:34:12;;;;;;;2.50;1.73;;;;;;;;;;5091812;28;20020;-63
2023/05/16 05:36:39;;;;;;;3.77;2.80;;;;;;;;;;5092491;28;20031;-63
2023/05/16 05:39:06;;;;;;;2.47;1.90;;;;;;;;;;5092119;28;20038;-63
2023/05/16 05:41:33;;;;;;;2.93;2.30;;;;;;;;;;5088989;28;20127;-64
2023/05/16 05:43:59;;;;;;;3.47;2.53;;;;;;;;;;5087150;28;20624;-64
2023/05/16 05:46:26;;;;;;;4.53;3.23;;;;;;;;;;5086883;28;20374;-64
2023/05/16 05:48:53;;;;;;;2.20;1.83;;;;;;;;;;5087042;28;20027;-63
2023/05/16 05:51:20;;;;;;;4.00;2.73;;;;;;;;;;5089346;28;20016;-63
2023/05/16 05:53:47;;;;;;;2.83;2.33;;;;;;;;;;5092090;28;20077;-63
2023/05/16 05:56:14;;;;;;;6.23;2.97;;;;;;;;;;5092194;28;20024;-63
2023/05/16 05:58:41;;;;;;;4.60;3.50;;;;;;;;;;5092337;28;20077;-63
2023/05/16 06:01:08;;;;;;;5.50;3.30;;;;;;;;;;5094307;28;20470;-63
2023/05/16 06:03:35;;;;;;;3.33;2.37;;;;;;;;;;5093190;28;20085;-63
2023/05/16 06:06:02;;;;;;;3.07;2.47;;;;;;;;;;5090756;28;20032;-65
2023/05/16 06:08:28;;;;;;;2.60;2.20;;;;;;;;;;5090649;28;20024;-63
2023/05/16 06:10:55;;;;;;;3.07;1.90;;;;;;;;;;5090285;28;20024;-63
2023/05/16 06:13:22;;;;;;;3.80;2.70;;;;;;;;;;5092136;28;20095;-63
2023/05/16 06:15:52;;;;;;;3.37;2.23;;;;;;;;;;5095737;28;20517;-63
2023/05/16 06:18:19;;;;;;;5.93;3.37;;;;;;;;;;5095693;28;20084;-63
2023/05/16 06:20:46;;;;;;;3.97;2.90;;;;;;;;;;5095290;28;20020;-63
2023/05/16 06:23:13;;;;;;;5.13;2.83;;;;;;;;;;5095459;28;20028;-63
2023/05/16 06:25:40;;;;;;;3.93;2.43;;;;;;;;;;5093400;28;20112;-63
2023/05/16 06:28:06;;;;;;;3.47;2.50;;;;;;;;;;5090269;28;20028;-63
2023/05/16 06:30:33;;;;;;;3.13;2.43;;;;;;;;;;5090311;28;20444;-63
2023/05/16 06:33:00;;;;;;;4.43;2.93;;;;;;;;;;5090265;28;20395;-64
2023/05/16 06:35:27;;;;;;;3.97;2.73;;;;;;;;;;5091468;28;20016;-63
2023/05/16 06:37:54;;;;;;;4.17;3.00;;;;;;;;;;5094965;28;20020;-63
2023/05/16 06:40:20;;;;;;;11.73;3.10;;;;;;;;;;5095202;28;20028;-63
2023/05/16 06:42:47;;;;;;;2.83;2.13;;;;;;;;;;5094875;28;20532;-63
2023/05/16 06:45:14;;;;;;;3.83;3.13;;;;;;;;;;5094573;28;20051;-63
2023/05/16 06:47:41;;;;;;;2.20;1.80;;;;;;;;;;5093656;28;20023;-63
2023/05/16 06:50:09;;;;;;;4.93;3.00;;;;;;;;;;5089860;28;20029;-63
2023/05/16 06:52:36;;;;;;;2.77;2.23;;;;;;;;;;5089806;28;20024;-64
2023/05/16 06:55:03;;;;;;;4.47;2.87;;;;;;;;;;5089725;28;20020;-63
2023/05/16 06:57:29;;;;;;;3.90;2.70;;;;;;;;;;5090442;28;20028;-63
2023/05/16 06:59:56;;;;;;;3.60;2.60;;;;;;;;;;5094652;28;20020;-63
2023/05/16 07:02:23;;;;;;;3.83;2.20;;;;;;;;;;5094295;28;20036;-63
2023/05/16 07:04:50;;;;;;;5.00;2.33;;;;;;;;;;5094916;28;20020;-63
2023/05/16 07:07:16;;;;;;;3.10;2.53;;;;;;;;;;5094713;28;20430;-63
2023/05/16 07:09:43;;;;;;;3.63;2.57;;;;;;;;;;5093990;28;20482;-63
2023/05/16 07:12:10;;;;;;;4.37;3.00;;;;;;;;;;5089094;28;20383;-63
2023/05/16 07:14:37;;;;;;;2.37;1.83;;;;;;;;;;5089480;28;20028;-63
2023/05/16 07:17:03;;;;;;;4.20;2.90;;;;;;;;;;5089456;28;20052;-64
2023/05/16 07:19:30;;;;;;;3.30;2.90;;;;;;;;;;5089417;28;20051;-63
2023/05/16 07:21:57;;;;;;;3.87;2.47;;;;;;;;;;5094084;28;20036;-63
2023/05/16 07:24:24;;;;;;;2.90;2.50;;;;;;;;;;5094340;28;20081;-63
2023/05/16 07:26:51;;;;;;;2.87;2.40;;;;;;;;;;5094165;28;20107;-63
2023/05/16 07:29:17;;;;;;;3.37;2.70;;;;;;;;;;5094121;28;20147;-64
2023/05/16 07:31:44;;;;;;;4.60;3.43;;;;;;;;;;5094207;28;20387;-63
2023/05/16 07:34:11;;;;;;;2.40;2.10;;;;;;;;;;5088962;28;20039;-64
2023/05/16 07:36:38;;;;;;;4.77;2.97;;;;;;;;;;5089207;28;20026;-63
2023/05/16 07:39:05;;;;;;;5.17;3.43;;;;;;;;;;5088488;28;20028;-63
2023/05/16 07:41:32;;;;;;;3.43;2.80;;;;;;;;;;5088816;28;20061;-63
2023/05/16 07:43:58;;;;;;;5.13;3.30;;;;;;;;;;5093201;28;20024;-63
2023/05/16 07:46:25;;;;;;;3.40;2.80;;;;;;;;;;5093750;28;20020;-63
2023/05/16 07:48:52;;;;;;;4.50;3.10;;;;;;;;;;5093842;28;20149;-63
2023/05/16 07:51:19;;;;;;;4.63;2.80;;;;;;;;;;5093767;28;20097;-63
2023/05/16 07:53:45;;;;;;;6.17;3.37;;;;;;;;;;5093673;28;20024;-63
2023/05/16 07:56:12;;;;;;;4.43;3.40;;;;;;;;;;5088747;28;20028;-63
2023/05/16 07:58:39;;;;;;;4.67;2.97;;;;;;;;;;5088584;28;20020;-63
2023/05/16 08:01:06;;;;;;;10.13;3.47;;;;;;;;;;5088545;28;20028;-63
2023/05/16 08:03:33;;;;;;;2.53;2.07;;;;;;;;;;5088648;28;20039;-63
2023/05/16 08:06:00;;;;;;;4.77;3.13;;;;;;;;;;5092257;28;20406;-63
2023/05/16 08:08:26;;;;;;;5.80;3.00;;;;;;;;;;5093277;28;20487;-63
2023/05/16 08:10:53;;;;;;;5.40;3.10;;;;;;;;;;5093490;28;20089;-63
2023/05/16 08:13:20;;;;;;;3.93;3.07;;;;;;;;;;5093088;28;20073;-63
2023/05/16 08:15:46;;;;;;;4.20;3.23;;;;;;;;;;5093413;28;20348;-63
2023/05/16 08:18:14;;;;;;;13.27;3.83;;;;;;;;;;5089321;28;20031;-63
2023/05/16 08:20:41;;;;;;;8.73;4.67;;;;;;;;;;5088012;28;20073;-62
2023/05/16 08:23:08;;;;;;;4.57;3.93;;;;;;;;;;5087788;28;20024;-62
2023/05/16 08:25:35;;;;;;;5.77;4.07;;;;;;;;;;5088158;28;20042;-64
2023/05/16 08:28:02;;;;;;;4.73;3.47;;;;;;;;;;5091128;28;20028;-63
2023/05/16 08:30:29;;;;;;;6.80;4.60;;;;;;;;;;5092917;28;20061;-63
2023/05/16 08:32:56;;;;;;;4.73;3.70;;;;;;;;;;5093078;28;20434;-63
2023/05/16 08:35:22;;;;;;;6.30;3.80;;;;;;;;;;5092943;28;20322;-63
2023/05/16 08:37:49;;;;;;;5.67;3.87;;;;;;;;;;5092953;28;20031;-63
2023/05/16 08:40:16;;;;;;;5.63;3.87;;;;;;;;;;5089602;28;20084;-63
2023/05/16 08:42:43;;;;;;;14.60;4.53;;;;;;;;;;5087907;28;20445;-64
2023/05/16 08:45:10;;;;;;;7.60;4.50;;;;;;;;;;5087804;28;20065;-63
2023/05/16 08:47:40;;;;;;;5.50;3.23;;;;;;;;;;5087593;28;20020;-64
2023/05/16 08:50:09;;;;;;;7.47;4.87;;;;;;;;;;5090335;28;20045;-64
2023/05/16 08:52:39;;;;;;;5.33;4.20;;;;;;;;;;5092916;28;20024;-64
2023/05/16 08:55:08;;;;;;;4.40;3.30;;;;;;;;;;5092633;28;20017;-63
2023/05/16 08:57:35;;;;;;;5.23;4.30;;;;;;;;;;5092688;28;20103;-63
2023/05/16 09:00:06;;;;;;;4.40;3.47;;;;;;;;;;5092597;28;20027;-63
2023/05/16 09:02:33;;;;;;;6.63;4.30;;;;;;;;;;5088988;28;20032;-63
2023/05/16 09:05:00;;;;;;;3.53;3.10;;;;;;;;;;5087585;28;20024;-63
2023/05/16 09:07:26;;;;;;;4.47;3.67;;;;;;;;;;5087418;28;20551;-63
2023/05/16 09:09:53;;;;;;;9.07;4.33;;;;;;;;;;5087505;28;20048;-63
2023/05/16 09:12:21;;;;;;;11.30;4.40;;;;;;;;;;5089597;28;20023;-63
2023/05/16 09:14:47;;;;;;;6.57;4.17;;;;;;;;;;5092544;28;20031;-63
2023/05/16 09:17:14;;;;;;;9.83;3.57;;;;;;;;;;5092504;28;20028;-63
2023/05/16 09:19:42;;;;;;;4.67;3.47;;;;;;;;;;5092011;28;20024;-63
2023/05/16 09:22:10;;;;;;;6.57;3.43;;;;;;;;;;5092445;28;20107;-64
2023/05/16 09:24:40;;;;;;;3.50;2.63;;;;;;;;;;5089777;28;20078;-63
2023/05/16 09:27:11;;;;;;;4.47;2.70;;;;;;;;;;5087310;28;20131;-63
2023/05/16 09:29:40;;;;;;;3.67;2.63;;;;;;;;;;5087163;28;20020;-63
2023/05/16 09:32:11;;;;;;;3.03;2.40;;;;;;;;;;5087088;28;20031;-63
2023/05/16 09:34:38;;;;;;;4.40;2.43;;;;;;;;;;5089385;28;20032;-64
2023/05/16 09:37:06;;;;;;;2.80;2.23;;;;;;;;;;5096561;28;20020;-63
2023/05/16 09:39:32;;;;;;;3.13;2.07;;;;;;;;;;5096259;28;20039;-63
2023/05/16 09:41:59;;;;;;;5.70;3.20;;;;;;;;;;5096097;28;20035;-64
2023/05/16 09:44:26;;;;;;;4.57;3.27;;;;;;;;;;5096343;28;20020;-63
2023/05/16 09:46:55;;;;;;;3.73;2.40;;;;;;;;;;5093335;28;20047;-63
2023/05/16 09:49:23;;;;;;;3.13;2.50;;;;;;;;;;5091078;28;20028;-63
2023/05/16 09:51:51;;;;;;;1.70;1.50;;;;;;;;;;5091066;28;20035;-63
2023/05/16 09:54:29;;;;;;;3.37;2.40;;;;;;;;;;5091118;28;20024;-63
2023/05/16 09:56:56;;;;;;;5.03;2.10;;;;;;;;;;5093484;28;20024;-63
2023/05/16 09:59:23;;;;;;;2.80;2.20;;;;;;;;;;5095949;28;20022;-63
2023/05/16 10:01:50;;;;;;;3.47;2.40;;;;;;;;;;5095975;28;20433;-63
2023/05/16 10:04:17;;;;;;;2.60;2.17;;;;;;;;;;5095190;28;20072;-63
2023/05/16 10:06:45;;;;;;;4.23;2.73;;;;;;;;;;5095924;28;20021;-63
2023/05/16 10:09:12;;;;;;;5.27;2.47;;;;;;;;;;5093398;28;20832;-63
2023/05/16 10:11:42;;;;;;;5.70;2.73;;;;;;;;;;5090625;28;20146;-63
2023/05/16 10:14:10;;;;;;;3.20;2.47;;;;;;;;;;5090624;28;20024;-63
2023/05/16 10:16:36;;;;;;;2.93;2.33;;;;;;;;;;5090473;28;20080;-63
2023/05/16 10:19:04;;;;;;;1.70;1.40;;;;;;;;;;5092277;28;20021;-64
2023/05/16 10:21:32;;;;;;;4.20;2.57;;;;;;;;;;5095274;28;20608;-63
2023/05/16 10:24:03;;;;;;;2.73;1.80;;;;;;;;;;5095398;28;20027;-63
2023/05/16 10:26:30;;;;;;;2.27;1.83;;;;;;;;;;5095585;28;20020;-63
2023/05/16 10:28:57;;;;;;;2.73;1.97;;;;;;;;;;5095498;28;20020;-63
2023/05/16 10:31:24;;;;;;;2.60;1.37;;;;;;;;;;5093403;28;20032;-63
2023/05/16 10:33:51;;;;;;;4.43;1.80;;;;;;;;;;5090254;28;20016;-63
2023/05/16 10:36:18;;;;;;;5.90;1.90;;;;;;;;;;5089731;28;20033;-64
2023/05/16 10:38:46;;;;;;;2.17;1.50;;;;;;;;;;5089974;28;20378;-63
2023/05/16 10:41:13;;;;;;;1.83;1.47;;;;;;;;;;5091351;28;20036;-63
2023/05/16 10:43:40;;;;;;;4.63;1.93;;;;;;;;;;5095188;28;20107;-63
2023/05/16 10:46:10;;;;;;;1.53;1.13;;;;;;;;;;5094439;28;20024;-63
2023/05/16 10:48:38;;;;;;;2.33;1.57;;;;;;;;;;5094983;28;20020;-63
2023/05/16 10:51:27;;;;;;;1.50;1.13;;;;;;;;;;5094494;28;20020;-63
2023/05/16 10:53:55;;;;;;;2.60;1.43;;;;;;;;;;5082173;28;20123;-63
2023/05/16 10:56:27;;;;;;;3.07;1.87;;;;;;;;;;5089809;28;20024;-63
2023/05/16 10:58:55;;;;;;;1.40;1.03;;;;;;;;;;5089827;28;20020;-63
2023/05/16 11:01:29;;;;;;;1.07;0.80;;;;;;;;;;5089360;28;20205;-63
2023/05/16 11:03:59;;;;;;;3.85;1.63;;;;;;;;;;5091558;28;20523;-62
2023/05/16 11:06:32;;;;;;;2.47;1.70;;;;;;;;;;5094819;28;20526;-63
2023/05/16 11:09:07;;;;;;;1.17;1.00;;;;;;;;;;5094676;28;20073;-63
2023/05/16 11:11:48;;;;;;;1.97;1.57;;;;;;;;;;5094441;28;20032;-63
2023/05/16 11:14:23;;;;;;;1.87;1.43;;;;;;;;;;5094586;28;20024;-63
2023/05/16 11:16:52;;;;;;;2.97;1.73;;;;;;;;;;5091487;28;20020;-63
2023/05/16 11:19:30;;;;;;;1.50;1.17;;;;;;;;;;5089680;28;20360;-63
2023/05/16 11:22:06;;;;;;;8.40;1.87;;;;;;;;;;5088732;28;20032;-64
2023/05/16 11:24:34;;;;;;;2.73;1.60;;;;;;;;;;5089087;28;20024;-63
2023/05/16 11:27:01;;;;;;;1.20;1.10;;;;;;;;;;5092287;28;20451;-64
2023/05/16 11:29:35;;;;;;;1.23;1.10;;;;;;;;;;5094139;28;20074;-63
2023/05/16 11:32:03;;;;;;;2.10;1.63;;;;;;;;;;5094053;28;20020;-63
2023/05/16 11:34:30;;;;;;;1.77;1.33;;;;;;;;;;5093829;28;20366;-63
2023/05/16 11:36:59;;;;;;;2.40;1.70;;;;;;;;;;5094132;28;20425;-62
2023/05/16 11:39:25;;;;;;;4.77;1.67;;;;;;;;;;5090802;28;20023;-63
2023/05/16 11:41:53;;;;;;;2.30;1.53;;;;;;;;;;5089085;28;20036;-63
2023/05/16 11:44:20;;;;;;;2.80;1.77;;;;;;;;;;5088807;28;20054;-62
2023/05/16 11:46:47;;;;;;;3.03;1.90;;;;;;;;;;5088753;28;20031;-63
2023/05/16 11:49:14;;;;;;;2.27;1.50;;;;;;;;;;5091375;28;20043;-63
2023/05/16 11:51:42;;;;;;;2.03;1.53;;;;;;;;;;5093464;28;20081;-63
2023/05/16 11:54:11;;;;;;;2.37;1.67;;;;;;;;;;5093523;28;20031;-62
2023/05/16 11:56:40;;;;;;;1.73;1.30;;;;;;;;;;5093656;28;20028;-63
2023/05/16 11:59:07;;;;;;;4.20;1.10;;;;;;;;;;5092693;28;20383;-64
2023/05/16 12:01:37;;;;;;;2.93;1.57;;;;;;;;;;5092205;28;20040;-62
2023/05/16 12:04:10;;;;;;;2.93;2.00;;;;;;;;;;5088260;28;20070;-63
2023/05/16 12:06:37;;;;;;;1.70;1.40;;;;;;;;;;5088029;28;20027;-63
2023/05/16 12:09:12;;;;;;;2.03;1.37;;;;;;;;;;5088461;28;20028;-63
2023/05/16 12:11:39;;;;;;;2.38;1.40;;;;;;;;;;5089584;28;20027;-62
2023/05/16 12:14:07;;;;;;;2.17;1.57;;;;;;;;;;5093143;28;20024;-63
2023/05/16 12:16:35;;;;;;;2.13;1.33;;;;;;;;;;5093353;28;20024;-62
2023/05/16 12:19:03;;;;;;;2.30;1.33;;;;;;;;;;5092870;28;20020;-63
2023/05/16 12:21:31;;;;;;;19.97;1.40;;;;;;;;;;5093110;28;20039;-63
2023/05/16 12:23:58;;;;;;;0.87;0.67;;;;;;;;;;5091449;28;20051;-63
2023/05/16 12:26:29;;;;;;;3.90;2.07;;;;;;;;;;5088024;28;20036;-63
2023/05/16 12:29:02;;;;;;;2.33;1.40;;;;;;;;;;5088073;28;20027;-63
2023/05/16 12:31:30;;;;;;;2.83;1.40;;;;;;;;;;5087976;28;20051;-62
2023/05/16 12:33:57;;;;;;;1.03;0.90;;;;;;;;;;5088634;28;20379;-63
2023/05/16 12:36:27;;;;;;;1.90;1.30;;;;;;;;;;5092981;28;20021;-62
2023/05/16 12:38:54;;;;;;;1.90;1.37;;;;;;;;;;5092532;28;20490;-62
2023/05/16 12:41:22;;;;;;;1.90;1.40;;;;;;;;;;5092864;28;20035;-64
2023/05/16 12:43:49;;;;;;;2.53;1.60;;;;;;;;;;5092928;28;20639;-62
2023/05/16 12:46:16;;;;;;;1.57;1.20;;;;;;;;;;5091101;28;20028;-62
2023/05/16 12:48:43;;;;;;;1.60;1.40;;;;;;;;;;5087563;28;20024;-63
2023/05/16 12:51:16;;;;;;;2.27;1.20;;;;;;;;;;5087592;28;20020;-63
2023/05/16 12:53:44;;;;;;;10.80;1.93;;;;;;;;;;5087713;28;20020;-63
2023/05/16 12:56:11;;;;;;;4.97;1.90;;;;;;;;;;5088542;28;20052;-62
2023/05/16 12:58:38;;;;;;;2.93;1.67;;;;;;;;;;5092672;28;20024;-63
2023/05/16 13:01:05;;;;;;;1.27;1.07;;;;;;;;;;5092778;28;20435;-62
2023/05/16 13:03:33;;;;;;;3.77;2.13;;;;;;;;;;5092278;28;20117;-63
2023/05/16 13:06:00;;;;;;;3.10;2.33;;;;;;;;;;5092466;28;20028;-63
2023/05/16 13:08:28;;;;;;;4.20;2.60;;;;;;;;;;5091155;28;20103;-63
2023/05/16 13:10:55;;;;;;;4.07;2.13;;;;;;;;;;5087236;28;20494;-63
2023/05/16 13:13:22;;;;;;;3.47;2.03;;;;;;;;;;5087267;28;20028;-63
2023/05/16 13:15:49;;;;;;;3.27;2.47;;;;;;;;;;5087311;28;20069;-63
2023/05/16 13:18:16;;;;;;;2.33;1.97;;;;;;;;;;5088031;28;20028;-63
2023/05/16 13:20:43;;;;;;;12.73;1.97;;;;;;;;;;5091870;28;20036;-63
2023/05/16 13:23:10;;;;;;;2.20;1.67;;;;;;;;;;5092226;28;20368;-62
2023/05/16 13:25:36;;;;;;;3.87;2.03;;;;;;;;;;5092517;28;20054;-63
2023/05/16 13:28:03;;;;;;;5.37;3.37;;;;;;;;;;5092301;28;20024;-63
2023/05/16 13:30:31;;;;;;;5.50;2.73;;;;;;;;;;5091167;28;20020;-63
2023/05/16 13:32:57;;;;;;;3.47;2.13;;;;;;;;;;5087141;28;20008;-63
2023/05/16 13:35:25;;;;;;;3.57;2.33;;;;;;;;;;5087031;28;20031;-63
2023/05/16 13:37:52;;;;;;;2.53;1.97;;;;;;;;;;5086678;28;20024;-64
2023/05/16 13:40:18;;;;;;;3.10;2.07;;;;;;;;;;5087171;28;20040;-63
2023/05/16 13:42:45;;;;;;;6.17;3.23;;;;;;;;;;5092101;28;20044;-64
2023/05/16 13:45:12;;;;;;;4.47;2.63;;;;;;;;;;5092177;28;20016;-63
2023/05/16 13:47:39;;;;;;;5.63;3.30;;;;;;;;;;5091871;28;20016;-63
2023/05/16 13:50:08;;;;;;;3.50;2.63;;;;;;;;;;5092154;28;20028;-63
2023/05/16 13:52:36;;;;;;;4.10;2.67;;;;;;;;;;5091494;28;20486;-63
2023/05/16 13:55:03;;;;;;;5.87;3.00;;;;;;;;;;5086793;28;20026;-63
2023/05/16 13:57:31;;;;;;;4.77;2.07;;;;;;;;;;5087012;28;20035;-63
2023/05/16 13:59:59;;;;;;;5.70;3.00;;;;;;;;;;5086956;28;20016;-64
2023/05/16 14:02:25;;;;;;;3.47;2.30;;;;;;;;;;5086831;28;20093;-63
2023/05/16 14:04:52;;;;;;;4.07;2.53;;;;;;;;;;5091791;28;20024;-63
2023/05/16 14:07:19;;;;;;;2.67;2.37;;;;;;;;;;5091987;28;20105;-63
2023/05/16 14:09:46;;;;;;;4.20;2.67;;;;;;;;;;5091410;28;20467;-64
2023/05/16 14:12:13;;;;;;;4.60;2.93;;;;;;;;;;5091898;28;20035;-64
2023/05/16 14:14:40;;;;;;;3.50;2.73;;;;;;;;;;5092222;28;20379;-63
2023/05/16 14:17:07;;;;;;;6.17;2.73;;;;;;;;;;5086864;28;20028;-63
2023/05/16 14:19:34;;;;;;;4.53;2.57;;;;;;;;;;5086845;28;20149;-64
2023/05/16 14:22:01;;;;;;;4.73;2.53;;;;;;;;;;5088558;28;20456;-63
2023/05/16 14:24:27;;;;;;;2.43;1.93;;;;;;;;;;5090410;28;20024;-63
2023/05/16 14:26:54;;;;;;;2.77;2.17;;;;;;;;;;5094370;28;20028;-63
2023/05/16 14:29:21;;;;;;;7.30;3.53;;;;;;;;;;5095377;28;20020;-64
2023/05/16 14:31:48;;;;;;;2.10;1.33;;;;;;;;;;5095410;28;20024;-64
2023/05/16 14:34:15;;;;;;;2.60;1.97;;;;;;;;;;5095163;28;20102;-63
2023/05/16 14:36:42;;;;;;;7.60;3.10;;;;;;;;;;5095310;28;20028;-64
2023/05/16 14:39:09;;;;;;;3.43;2.30;;;;;;;;;;5089948;28;20028;-63
2023/05/16 14:41:36;;;;;;;4.13;2.57;;;;;;;;;;5090076;28;20036;-64
2023/05/16 14:44:03;;;;;;;4.47;1.93;;;;;;;;;;5089694;28;20027;-64
2023/05/16 14:46:30;;;;;;;2.10;1.53;;;;;;;;;;5089885;28;20085;-64